createdAt,value
2023-04-24T00:01:38.092Z,96892.84
2023-04-24T00:04:05.089Z,96887.97
2023-04-24T00:06:34.925Z,96902.47
2023-04-24T00:09:02.143Z,96888.41
2023-04-24T00:11:29.238Z,96896.94
2023-04-24T00:13:56.637Z,96892.03
2023-04-24T00:16:23.417Z,96887.94
2023-04-24T00:18:50.970Z,96889.19
2023-04-24T00:21:18.762Z,96883.88
2023-04-24T00:23:47.076Z,96882.66
2023-04-24T00:26:13.929Z,96872.03
2023-04-24T00:28:40.633Z,96867.75
2023-04-24T00:31:07.218Z,96876.91
2023-04-24T00:33:34.027Z,96875.72
2023-04-24T00:36:01.862Z,96867.13
2023-04-24T00:38:31.325Z,96864.91
2023-04-24T00:40:57.771Z,96863.66
2023-04-24T00:43:24.656Z,96856.53
2023-04-24T00:45:51.317Z,96855.28
2023-04-24T00:48:18.525Z,96851.63
2023-04-24T00:50:45.206Z,96862.44
2023-04-24T00:53:11.777Z,96861.38
2023-04-24T00:55:38.501Z,96854.84
2023-04-24T00:58:05.588Z,96854.66
2023-04-24T01:00:33.014Z,96849.75
2023-04-24T01:03:05.061Z,96853.19
2023-04-24T01:05:32.286Z,96843.44
2023-04-24T01:07:59.915Z,96844.84
2023-04-24T01:10:27.260Z,96845.88
2023-04-24T01:12:54.125Z,96840.16
2023-04-24T01:15:21.082Z,96841.38
2023-04-24T01:17:47.871Z,96843.22
2023-04-24T01:20:14.705Z,96828.34
2023-04-24T01:22:43.348Z,96827.13
2023-04-24T01:25:10.044Z,96829.16
2023-04-24T01:27:36.621Z,96829.34
2023-04-24T01:30:03.461Z,96827.31
2023-04-24T01:32:30.498Z,96821.63
2023-04-24T01:34:57.026Z,96817.97
2023-04-24T01:37:23.687Z,96817.75
2023-04-24T01:39:50.530Z,96808.59
2023-04-24T01:42:17.337Z,96812.84
2023-04-24T01:44:44.271Z,96816.31
2023-04-24T01:47:11.276Z,96808.00
2023-04-24T01:49:39.751Z,96815.53
2023-04-24T01:52:06.483Z,96819.00
2023-04-24T01:54:32.868Z,96811.44
2023-04-24T01:57:00.381Z,96804.72
2023-04-24T01:59:29.079Z,96797.41
2023-04-24T02:01:55.719Z,96800.84
2023-04-24T02:04:22.667Z,96803.94
2023-04-24T02:06:50.555Z,96808.41
2023-04-24T02:09:17.286Z,96803.75
2023-04-24T02:11:46.980Z,96798.81
2023-04-24T02:14:13.608Z,96806.78
2023-04-24T02:16:40.349Z,96797.41
2023-04-24T02:19:06.878Z,96788.81
2023-04-24T02:21:34.462Z,96782.28
2023-04-24T02:24:01.080Z,96781.50
2023-04-24T02:26:27.812Z,96779.66
2023-04-24T02:28:54.489Z,96781.09
2023-04-24T02:31:21.509Z,96776.19
2023-04-24T02:33:48.235Z,96764.78
2023-04-24T02:36:15.082Z,96769.69
2023-04-24T02:38:41.615Z,96774.13
2023-04-24T02:41:10.546Z,96760.06
2023-04-24T02:43:37.142Z,96758.25
2023-04-24T02:46:04.981Z,96767.22
2023-04-24T02:48:31.669Z,96752.13
2023-04-24T02:50:59.212Z,96753.53
2023-04-24T02:53:26.000Z,96741.50
2023-04-24T02:55:52.669Z,96741.13
2023-04-24T02:58:21.240Z,96733.38
2023-04-24T03:00:51.529Z,96730.13
2023-04-24T03:03:19.835Z,96728.06
2023-04-24T03:05:46.810Z,96730.94
2023-04-24T03:08:13.257Z,96728.44
2023-04-24T03:10:42.916Z,96724.81
2023-04-24T03:13:12.099Z,96726.06
2023-04-24T03:15:39.470Z,96724.81
2023-04-24T03:18:07.609Z,96734.59
2023-04-24T03:20:36.489Z,96730.13
2023-04-24T03:23:04.143Z,96722.78
2023-04-24T03:25:31.064Z,96711.16
2023-04-24T03:27:57.639Z,96706.09
2023-04-24T03:30:24.435Z,96699.94
2023-04-24T03:32:51.483Z,96706.66
2023-04-24T03:35:17.980Z,96702.59
2023-04-24T03:37:47.733Z,96701.38
2023-04-24T03:40:16.787Z,96700.34
2023-04-24T03:42:43.731Z,96695.50
2023-04-24T03:45:10.555Z,96703.84
2023-04-24T03:47:37.286Z,96702.41
2023-04-24T03:50:08.051Z,96704.44
2023-04-24T03:52:35.894Z,96695.06
2023-04-24T03:55:02.461Z,96706.88
2023-04-24T03:57:28.909Z,96712.00
2023-04-24T03:59:55.861Z,96714.63
2023-04-24T04:02:22.457Z,96699.53
2023-04-24T04:04:52.457Z,96709.13
2023-04-24T04:07:19.436Z,96710.94
2023-04-24T04:09:46.406Z,96713.19
2023-04-24T04:12:14.077Z,96711.78
2023-04-24T04:14:41.548Z,96705.03
2023-04-24T04:17:08.082Z,96705.25
2023-04-24T04:19:34.639Z,96702.38
2023-04-24T04:22:01.248Z,96701.78
2023-04-24T04:24:27.816Z,96699.91
2023-04-24T04:26:57.687Z,96694.22
2023-04-24T04:29:25.085Z,96712.19
2023-04-24T04:31:51.894Z,96712.59
2023-04-24T04:34:18.602Z,96704.63
2023-04-24T04:36:45.341Z,96714.22
2023-04-24T04:39:11.938Z,96707.50
2023-04-24T04:41:38.970Z,96706.28
2023-04-24T04:44:05.801Z,96703.44
2023-04-24T04:46:34.243Z,96698.34
2023-04-24T04:49:01.447Z,96691.41
2023-04-24T04:51:28.198Z,96696.28
2023-04-24T04:53:54.673Z,96684.44
2023-04-24T04:56:21.082Z,96682.41
2023-04-24T04:58:47.548Z,96692.22
2023-04-24T05:01:14.062Z,96698.72
2023-04-24T05:03:41.159Z,96689.53
2023-04-24T05:06:08.091Z,96699.56
2023-04-24T05:08:34.798Z,96697.50
2023-04-24T05:11:01.611Z,96705.25
2023-04-24T05:13:39.344Z,96708.72
2023-04-24T05:16:07.761Z,96710.56
2023-04-24T05:18:34.357Z,96718.44
2023-04-24T05:21:01.127Z,96728.41
2023-04-24T05:23:27.567Z,96737.38
2023-04-24T05:25:54.084Z,96727.19
2023-04-24T05:28:22.282Z,96736.16
2023-04-24T05:30:48.866Z,96741.81
2023-04-24T05:33:15.937Z,96746.94
2023-04-24T05:35:46.772Z,96738.78
2023-04-24T05:38:13.931Z,96743.03
2023-04-24T05:40:40.838Z,96746.50
2023-04-24T05:43:07.241Z,96752.41
2023-04-24T05:45:33.716Z,96749.16
2023-04-24T05:48:00.321Z,96747.53
2023-04-24T05:50:27.027Z,96754.88
2023-04-24T05:52:53.632Z,96752.78
2023-04-24T05:55:20.933Z,96755.91
2023-04-24T05:57:47.411Z,96742.34
2023-04-24T06:00:14.415Z,96744.78
2023-04-24T06:02:40.937Z,96742.16
2023-04-24T06:05:09.871Z,96743.59
2023-04-24T06:07:37.308Z,96718.72
2023-04-24T06:10:05.306Z,96731.75
2023-04-24T06:12:32.660Z,96725.84
2023-04-24T06:14:59.279Z,96717.25
2023-04-24T06:17:26.228Z,96717.28
2023-04-24T06:19:52.908Z,96721.34
2023-04-24T06:22:19.465Z,96708.47
2023-04-24T06:24:46.141Z,96696.50
2023-04-24T06:27:14.631Z,96682.63
2023-04-24T06:29:42.559Z,96672.00
2023-04-24T06:32:09.353Z,96629.28
2023-04-24T06:34:37.972Z,96571.59
2023-04-24T06:37:06.487Z,96492.16
2023-04-24T06:39:33.121Z,96491.16
2023-04-24T06:41:59.872Z,96465.75
2023-04-24T06:44:26.753Z,96473.94
2023-04-24T06:46:53.492Z,96455.53
2023-04-24T06:49:20.180Z,96449.50
2023-04-24T06:51:47.062Z,96477.41
2023-04-24T06:54:13.882Z,96470.16
2023-04-24T06:56:40.529Z,96498.69
2023-04-24T06:59:07.158Z,96559.22
2023-04-24T07:01:33.927Z,96601.06
2023-04-24T07:04:01.220Z,96679.78
2023-04-24T07:06:28.502Z,96801.25
2023-04-24T07:08:59.780Z,96948.69
2023-04-24T07:11:31.430Z,97187.16
2023-04-24T07:13:58.181Z,97559.25
2023-04-24T07:16:24.663Z,97730.53
2023-04-24T07:18:51.209Z,97753.38
2023-04-24T07:21:17.622Z,97742.25
2023-04-24T07:23:45.090Z,97770.44
2023-04-24T07:26:11.852Z,97763.91
2023-04-24T07:28:38.848Z,97762.00
2023-04-24T07:31:05.496Z,97763.72
2023-04-24T07:33:32.211Z,97776.75
2023-04-24T07:35:58.818Z,97783.50
2023-04-24T07:38:27.148Z,97785.03
2023-04-24T07:40:55.370Z,97781.25
2023-04-24T07:43:22.601Z,97778.72
2023-04-24T07:45:49.204Z,97805.31
2023-04-24T07:48:17.548Z,97794.88
2023-04-24T07:50:44.545Z,97796.84
2023-04-24T07:53:11.602Z,97810.09
2023-04-24T07:55:39.524Z,97815.81
2023-04-24T07:58:06.431Z,97813.16
2023-04-24T08:00:32.984Z,97805.75
2023-04-24T08:03:00.056Z,97802.97
2023-04-24T08:05:29.342Z,97802.53
2023-04-24T08:07:56.300Z,97792.97
2023-04-24T08:10:24.308Z,97808.38
2023-04-24T08:12:51.444Z,97800.38
2023-04-24T08:15:20.618Z,97811.91
2023-04-24T08:17:47.546Z,97819.84
2023-04-24T08:20:19.615Z,97809.19
2023-04-24T08:22:48.331Z,97812.72
2023-04-24T08:25:16.698Z,97825.72
2023-04-24T08:27:43.746Z,97825.09
2023-04-24T08:30:10.898Z,97825.09
2023-04-24T08:32:37.689Z,97817.59
2023-04-24T08:35:04.688Z,97794.19
2023-04-24T08:37:32.854Z,97839.75
2023-04-24T08:39:59.427Z,97828.50
2023-04-24T08:42:27.692Z,97830.97
2023-04-24T08:44:55.250Z,97819.06
2023-04-24T08:47:23.001Z,97840.59
2023-04-24T08:49:50.673Z,97792.34
2023-04-24T08:52:17.529Z,97828.50
2023-04-24T08:54:46.571Z,97842.28
2023-04-24T08:57:15.938Z,97840.94
2023-04-24T08:59:43.262Z,97834.44
2023-04-24T09:02:13.580Z,97838.47
2023-04-24T09:04:42.147Z,97839.16
2023-04-24T09:07:11.407Z,97848.00
2023-04-24T09:09:39.766Z,97853.56
2023-04-24T09:12:08.023Z,97870.44
2023-04-24T09:14:34.765Z,97863.94
2023-04-24T09:17:01.878Z,97870.78
2023-04-24T09:19:29.242Z,97892.91
2023-04-24T09:21:56.350Z,97889.09
2023-04-24T09:24:26.603Z,97872.19
2023-04-24T09:26:59.794Z,97882.41
2023-04-24T09:29:26.586Z,97866.09
2023-04-24T09:31:53.095Z,97866.88
2023-04-24T09:34:24.911Z,97870.94
2023-04-24T09:36:52.003Z,97870.31
2023-04-24T09:39:20.949Z,97878.53
2023-04-24T09:41:55.597Z,97873.13
2023-04-24T09:44:29.129Z,97883.00
2023-04-24T09:46:59.740Z,97886.03
2023-04-24T09:49:30.491Z,97869.25
2023-04-24T09:52:05.212Z,97883.06
2023-04-24T09:54:33.176Z,97896.69
2023-04-24T09:57:01.425Z,97896.72
2023-04-24T09:59:27.999Z,97893.28
2023-04-24T10:01:54.952Z,97908.59
2023-04-24T10:04:25.753Z,97892.41
2023-04-24T10:06:53.881Z,97895.84
2023-04-24T10:09:21.806Z,97894.03
2023-04-24T10:11:52.357Z,97872.53
2023-04-24T10:14:20.305Z,97878.56
2023-04-24T10:16:48.206Z,97900.50
2023-04-24T10:19:16.193Z,97885.38
2023-04-24T10:21:47.236Z,97896.84
2023-04-24T10:24:14.489Z,97887.25
2023-04-24T10:26:42.028Z,97891.66
2023-04-24T10:29:13.787Z,97893.53
2023-04-24T10:31:41.180Z,97873.78
2023-04-24T10:34:08.145Z,97879.22
2023-04-24T10:36:36.300Z,97874.28
2023-04-24T10:39:03.913Z,97874.31
2023-04-24T10:41:31.470Z,97894.13
2023-04-24T10:44:07.538Z,97886.06
2023-04-24T10:46:34.087Z,97891.38
2023-04-24T10:49:04.973Z,97891.53
2023-04-24T10:51:50.026Z,97889.50
2023-04-24T10:54:43.130Z,97906.03
2023-04-24T10:57:22.914Z,97900.91
2023-04-24T10:59:50.895Z,97899.66
2023-04-24T11:02:18.430Z,97908.75
2023-04-24T11:04:46.376Z,97903.44
2023-04-24T11:07:13.421Z,97907.00
2023-04-24T11:09:42.896Z,97906.69
2023-04-24T11:12:12.215Z,97891.63
2023-04-24T11:14:57.591Z,97895.56
2023-04-24T11:17:38.908Z,97888.41
2023-04-24T11:20:22.947Z,97876.38
2023-04-24T11:22:58.779Z,97879.06
2023-04-24T11:25:26.178Z,97880.06
2023-04-24T11:28:03.709Z,97883.50
2023-04-24T11:30:30.881Z,97880.28
2023-04-24T11:33:02.945Z,97863.03
2023-04-24T11:35:32.063Z,97882.84
2023-04-24T11:40:29.694Z,97874.66
2023-04-24T11:42:56.791Z,97900.22
2023-04-24T11:45:23.346Z,97888.47
2023-04-24T11:47:51.359Z,97915.03
2023-04-24T11:52:53.278Z,96639.19
2023-04-24T11:55:19.837Z,96671.63
2023-04-24T11:57:46.885Z,96664.06
2023-04-24T12:00:32.243Z,96681.13
2023-04-24T12:03:09.166Z,96586.22
2023-04-24T12:05:36.365Z,96583.34
2023-04-24T12:08:02.943Z,96635.44
2023-04-24T12:10:30.124Z,96782.03
2023-04-24T12:12:57.418Z,96932.16
2023-04-24T12:15:24.082Z,97156.25
2023-04-24T12:17:54.119Z,97104.53
2023-04-24T12:20:44.012Z,97107.69
2023-04-24T12:23:10.437Z,97048.88
2023-04-24T12:25:37.227Z,97051.75
2023-04-24T12:28:14.035Z,96864.31
2023-04-24T12:30:45.932Z,96800.84
2023-04-24T12:33:12.745Z,96681.75
2023-04-24T12:35:42.241Z,96718.38
2023-04-24T12:38:09.474Z,96735.31
2023-04-24T12:40:36.108Z,96803.78
2023-04-24T12:43:02.981Z,96915.31
2023-04-24T12:45:29.943Z,96920.22
2023-04-24T12:47:56.513Z,96978.16
2023-04-24T12:50:23.506Z,96925.94
2023-04-24T12:52:50.096Z,96981.47
2023-04-24T12:55:16.542Z,97083.63
2023-04-24T12:57:43.597Z,97065.56
2023-04-24T13:00:10.747Z,97041.44
2023-04-24T13:02:37.693Z,96977.25
2023-04-24T13:05:04.485Z,96913.28
2023-04-24T13:07:30.969Z,96911.22
2023-04-24T13:09:58.721Z,96889.00
2023-04-24T13:12:25.417Z,96960.84
2023-04-24T13:14:52.077Z,97009.63
2023-04-24T13:17:18.648Z,97084.72
2023-04-24T13:19:46.340Z,97178.78
2023-04-24T13:22:13.649Z,97283.91
2023-04-24T13:24:41.881Z,97369.69
2023-04-24T13:27:08.521Z,97543.94
2023-04-24T13:29:35.232Z,97641.19
2023-04-24T13:32:01.854Z,97665.81
2023-04-24T13:34:28.377Z,97700.56
2023-04-24T13:36:56.048Z,97701.13
2023-04-24T13:39:22.894Z,97720.28
2023-04-24T13:41:49.811Z,97704.59
2023-04-24T13:44:17.585Z,97746.91
2023-04-24T13:46:45.706Z,97766.97
2023-04-24T13:49:12.789Z,97792.97
2023-04-24T13:51:39.325Z,97814.16
2023-04-24T13:54:05.997Z,97825.84
2023-04-24T13:56:32.442Z,97812.91
2023-04-24T13:58:58.794Z,97825.41
2023-04-24T14:01:25.959Z,97818.84
2023-04-24T14:03:53.363Z,97812.22
2023-04-24T14:06:20.406Z,97827.81
2023-04-24T14:08:47.110Z,97853.69
2023-04-24T14:11:13.866Z,97849.16
2023-04-24T14:13:41.951Z,97849.78
2023-04-24T14:16:09.069Z,97841.09
2023-04-24T14:18:36.120Z,97818.28
2023-04-24T14:21:02.814Z,97837.13
2023-04-24T14:23:29.191Z,97828.91
2023-04-24T14:25:55.768Z,97833.75
2023-04-24T14:28:22.403Z,97832.38
2023-04-24T14:30:49.174Z,97827.41
2023-04-24T14:33:15.730Z,97845.72
2023-04-24T14:35:45.579Z,97851.66
2023-04-24T14:38:12.063Z,97858.41
2023-04-24T14:40:58.849Z,97841.00
2023-04-24T14:43:25.108Z,97843.94
2023-04-24T14:45:51.596Z,97881.47
2023-04-24T14:48:18.741Z,97882.34
2023-04-24T14:50:46.316Z,97902.41
2023-04-24T14:53:12.759Z,97921.69
2023-04-24T14:55:39.351Z,97924.88
2023-04-24T14:58:07.735Z,97913.50
2023-04-24T15:00:34.207Z,97928.59
2023-04-24T15:03:02.061Z,97935.13
2023-04-24T15:05:29.230Z,97950.91
2023-04-24T15:07:55.848Z,97932.22
2023-04-24T15:10:24.025Z,97929.00
2023-04-24T15:12:50.735Z,97936.16
2023-04-24T15:15:17.198Z,97914.00
2023-04-24T15:17:43.677Z,97910.00
2023-04-24T15:20:10.558Z,97910.44
2023-04-24T15:22:37.164Z,97932.06
2023-04-24T15:25:04.084Z,97922.53
2023-04-24T15:27:40.062Z,97928.94
2023-04-24T15:30:07.113Z,97920.72
2023-04-24T15:32:33.959Z,97914.28
2023-04-24T15:35:07.640Z,97910.66
2023-04-24T15:37:34.839Z,97907.78
2023-04-24T15:40:01.300Z,97909.81
2023-04-24T15:42:27.919Z,97885.16
2023-04-24T15:44:54.309Z,97862.19
2023-04-24T15:47:20.753Z,97839.09
2023-04-24T15:49:47.351Z,97794.06
2023-04-24T15:52:15.897Z,97679.22
2023-04-24T15:54:42.563Z,97655.16
2023-04-24T15:57:08.958Z,97657.81
2023-04-24T15:59:35.979Z,97673.91
2023-04-24T16:02:04.763Z,97695.16
2023-04-24T16:04:31.666Z,97725.94
2023-04-24T16:06:58.299Z,97757.13
2023-04-24T16:09:24.730Z,97776.53
2023-04-24T16:11:51.232Z,97789.00
2023-04-24T16:14:17.664Z,97796.84
2023-04-24T16:16:44.063Z,97826.25
2023-04-24T16:19:10.546Z,97800.84
2023-04-24T16:21:36.945Z,97821.50
2023-04-24T16:24:03.398Z,97844.19
2023-04-24T16:26:29.818Z,97828.56
2023-04-24T16:28:56.245Z,97842.25
2023-04-24T16:31:23.603Z,97841.75
2023-04-24T16:33:49.973Z,97882.50
2023-04-24T16:36:16.513Z,97879.53
2023-04-24T16:38:42.934Z,97898.50
2023-04-24T16:41:09.442Z,97894.88
2023-04-24T16:43:36.033Z,97900.78
2023-04-24T16:46:02.622Z,97897.00
2023-04-24T16:48:28.978Z,97928.28
2023-04-24T16:50:55.397Z,97920.06
2023-04-24T16:53:21.950Z,97925.16
2023-04-24T16:55:50.545Z,97926.66
2023-04-24T16:58:17.556Z,97925.06
2023-04-24T17:00:44.776Z,97926.38
2023-04-24T17:03:12.793Z,97929.69
2023-04-24T17:05:39.636Z,97921.94
2023-04-24T17:08:06.093Z,97938.44
2023-04-24T17:10:32.487Z,97953.03
2023-04-24T17:13:00.307Z,97952.63
2023-04-24T17:15:26.931Z,97952.13
2023-04-24T17:17:53.550Z,97957.75
2023-04-24T17:20:23.176Z,97938.81
2023-04-24T17:22:50.146Z,97942.28
2023-04-24T17:25:16.783Z,97949.94
2023-04-24T17:27:43.194Z,97934.69
2023-04-24T17:30:09.871Z,97959.84
2023-04-24T17:32:36.267Z,97965.16
2023-04-24T17:35:02.738Z,97958.13
2023-04-24T17:37:29.752Z,97965.88
2023-04-24T17:39:56.377Z,97971.50
2023-04-24T17:42:22.859Z,97962.88
2023-04-24T17:44:49.308Z,97926.13
2023-04-24T17:47:15.758Z,97908.63
2023-04-24T17:49:44.687Z,97900.28
2023-04-24T17:52:11.809Z,97865.78
2023-04-24T17:54:38.246Z,97733.78
2023-04-24T17:57:04.620Z,97624.50
2023-04-24T17:59:31.160Z,97577.22
2023-04-24T18:01:58.411Z,97632.81
2023-04-24T18:04:26.102Z,97694.50
2023-04-24T18:06:52.648Z,97703.72
2023-04-24T18:09:21.112Z,97739.59
2023-04-24T18:11:49.198Z,97747.19
2023-04-24T18:14:15.675Z,97760.09
2023-04-24T18:16:42.175Z,97763.75
2023-04-24T18:19:08.578Z,97777.81
2023-04-24T18:21:35.035Z,97777.31
2023-04-24T18:24:01.483Z,97773.38
2023-04-24T18:26:27.826Z,97772.41
2023-04-24T18:28:54.220Z,97772.22
2023-04-24T18:31:20.890Z,97767.13
2023-04-24T18:33:47.452Z,97756.88
2023-04-24T18:36:13.990Z,97758.50
2023-04-24T18:38:40.516Z,97731.75
2023-04-24T18:41:06.871Z,97725.81
2023-04-24T18:43:33.320Z,97725.50
2023-04-24T18:45:59.698Z,97721.56
2023-04-24T18:48:28.778Z,97697.44
2023-04-24T18:50:55.407Z,97672.53
2023-04-24T18:53:21.750Z,97620.38
2023-04-24T18:55:48.255Z,97556.81
2023-04-24T18:58:14.628Z,97504.22
2023-04-24T19:00:41.404Z,97457.19
2023-04-24T19:03:09.257Z,97374.75
2023-04-24T19:05:35.901Z,97321.66
2023-04-24T19:08:02.346Z,97238.28
2023-04-24T19:10:29.122Z,97169.03
2023-04-24T19:12:56.934Z,97161.53
2023-04-24T19:15:24.159Z,97121.00
2023-04-24T19:17:51.702Z,97097.16
2023-04-24T19:20:21.337Z,97077.88
2023-04-24T19:22:47.866Z,97065.03
2023-04-24T19:25:14.292Z,97039.38
2023-04-24T19:27:40.719Z,97027.66
2023-04-24T19:30:07.513Z,97011.00
2023-04-24T19:32:33.936Z,97000.81
2023-04-24T19:35:00.762Z,96971.59
2023-04-24T19:37:27.201Z,96969.53
2023-04-24T19:39:53.618Z,96973.97
2023-04-24T19:42:25.719Z,96960.69
2023-04-24T19:44:58.598Z,96931.50
2023-04-24T19:47:25.023Z,96952.44
2023-04-24T19:49:51.759Z,96956.75
2023-04-24T19:52:18.238Z,96956.75
2023-04-24T19:54:44.692Z,96948.56
2023-04-24T19:57:11.149Z,96927.56
2023-04-24T19:59:37.537Z,96951.41
2023-04-24T20:02:04.069Z,96942.38
2023-04-24T20:04:31.114Z,96983.84
2023-04-24T20:06:59.496Z,96995.94
2023-04-24T20:09:26.045Z,97027.66
2023-04-24T20:11:53.670Z,97002.00
2023-04-24T20:14:20.426Z,96984.09
2023-04-24T20:16:46.844Z,96987.25
2023-04-24T20:19:13.249Z,97000.38
2023-04-24T20:21:39.653Z,97003.16
2023-04-24T20:24:08.702Z,97056.03
2023-04-24T20:26:36.287Z,97051.78
2023-04-24T20:29:04.060Z,97029.44
2023-04-24T20:31:30.808Z,97013.97
2023-04-24T20:33:57.284Z,96980.09
2023-04-24T20:36:23.703Z,96946.09
2023-04-24T20:38:50.471Z,96925.16
2023-04-24T20:41:17.244Z,96903.75
2023-04-24T20:43:43.809Z,96888.13
2023-04-24T20:46:10.938Z,96871.34
2023-04-24T20:48:37.500Z,96847.19
2023-04-24T20:51:04.082Z,96835.84
2023-04-24T20:53:30.533Z,96829.00
2023-04-24T20:55:56.960Z,96822.66
2023-04-24T20:58:24.401Z,96827.66
2023-04-24T21:00:51.446Z,96820.28
2023-04-24T21:03:17.993Z,96805.75
2023-04-24T21:05:44.450Z,96798.28
2023-04-24T21:08:10.976Z,96789.88
2023-04-24T21:10:37.376Z,96793.84
2023-04-24T21:13:03.891Z,96780.03
2023-04-24T21:15:30.862Z,96773.03
2023-04-24T21:17:57.352Z,96764.47
2023-04-24T21:20:23.766Z,96765.28
2023-04-24T21:22:50.977Z,96741.59
2023-04-24T21:25:17.405Z,96753.38
2023-04-24T21:27:43.933Z,96746.50
2023-04-24T21:30:11.519Z,96735.97
2023-04-24T21:32:39.381Z,96738.41
2023-04-24T21:35:06.210Z,96742.41
2023-04-24T21:37:33.691Z,96730.94
2023-04-24T21:40:00.066Z,96722.59
2023-04-24T21:42:26.952Z,96717.97
2023-04-24T21:44:53.329Z,96716.03
2023-04-24T21:47:19.856Z,96710.22
2023-04-24T21:49:46.234Z,96707.97
2023-04-24T21:52:12.601Z,96705.91
2023-04-24T21:54:39.044Z,96704.81
2023-04-24T21:57:05.609Z,96709.53
2023-04-24T21:59:31.993Z,96718.72
2023-04-24T22:01:58.886Z,96710.97
2023-04-24T22:04:25.816Z,96713.63
2023-04-24T22:06:54.263Z,96710.34
2023-04-24T22:09:21.605Z,96709.06
2023-04-24T22:11:48.290Z,96717.97
2023-04-24T22:14:14.995Z,96706.41
2023-04-24T22:16:46.014Z,96710.97
2023-04-24T22:19:12.396Z,96705.34
2023-04-24T22:21:39.454Z,96702.72
2023-04-24T22:24:06.084Z,96701.59
2023-04-24T22:26:32.595Z,96696.00
2023-04-24T22:28:59.017Z,96678.56
2023-04-24T22:31:25.550Z,96703.34
2023-04-24T22:33:52.276Z,96700.88
2023-04-24T22:36:18.764Z,96695.63
2023-04-24T22:38:45.174Z,96701.53
2023-04-24T22:41:11.666Z,96715.03
2023-04-24T22:43:38.438Z,96707.56
2023-04-24T22:46:04.848Z,96709.22
2023-04-24T22:48:32.773Z,96705.22
2023-04-24T22:50:59.226Z,96705.41
2023-04-24T22:53:26.197Z,96706.53
2023-04-24T22:55:52.744Z,96709.66
2023-04-24T22:58:19.114Z,96711.66
2023-04-24T23:00:45.715Z,96703.72
2023-04-24T23:03:12.394Z,96702.84
2023-04-24T23:05:39.054Z,96703.72
2023-04-24T23:08:05.444Z,96685.94
2023-04-24T23:10:32.084Z,96686.78
2023-04-24T23:12:58.513Z,96695.03
2023-04-24T23:15:24.915Z,96706.28
2023-04-24T23:17:51.658Z,96704.31
2023-04-24T23:20:18.057Z,96712.53
2023-04-24T23:22:44.389Z,96729.53
2023-04-24T23:25:11.100Z,96725.69
2023-04-24T23:27:37.483Z,96746.34
2023-04-24T23:30:04.651Z,96760.19
2023-04-24T23:32:31.073Z,96781.44
2023-04-24T23:34:57.474Z,96797.31
2023-04-24T23:37:24.179Z,96811.16
2023-04-24T23:39:51.084Z,96826.25
2023-04-24T23:42:17.490Z,96850.47
2023-04-24T23:44:44.089Z,96871.97
2023-04-24T23:47:10.593Z,96886.50
2023-04-24T23:49:37.795Z,96892.41
2023-04-24T23:52:04.488Z,96899.00
2023-04-24T23:54:30.943Z,96897.53
2023-04-24T23:56:57.343Z,96898.00
2023-04-24T23:59:23.858Z,96888.84
